createdAt,value
2023-04-23T00:00:06.515Z,12.70
2023-04-23T00:00:19.306Z,12.70
2023-04-23T00:00:31.912Z,12.60
2023-04-23T00:00:43.814Z,12.70
2023-04-23T00:00:57.899Z,12.60
2023-04-23T00:01:09.728Z,12.60
2023-04-23T00:01:21.521Z,12.60
2023-04-23T00:01:35.353Z,12.60
2023-04-23T00:01:47.136Z,12.60
2023-04-23T00:01:59.457Z,12.70
2023-04-23T00:02:15.127Z,12.70
2023-04-23T00:02:27.287Z,12.70
2023-04-23T00:02:39.811Z,12.70
2023-04-23T00:02:53.517Z,12.70
2023-04-23T00:03:10.599Z,12.70
2023-04-23T00:03:22.921Z,12.70
2023-04-23T00:03:36.692Z,12.70
2023-04-23T00:03:50.166Z,12.70
2023-04-23T00:04:02.345Z,12.70
2023-04-23T00:04:14.956Z,12.70
2023-04-23T00:04:27.127Z,12.70
2023-04-23T00:04:39.721Z,12.70
2023-04-23T00:04:52.845Z,12.70
2023-04-23T00:05:06.305Z,12.70
2023-04-23T00:05:18.290Z,12.70
2023-04-23T00:05:30.431Z,12.70
2023-04-23T00:05:42.602Z,12.70
2023-04-23T00:05:55.432Z,12.70
2023-04-23T00:06:11.512Z,12.70
2023-04-23T00:06:26.660Z,12.70
2023-04-23T00:06:38.472Z,12.70
2023-04-23T00:06:50.273Z,12.70
2023-04-23T00:07:03.646Z,12.70
2023-04-23T00:07:15.490Z,12.70
2023-04-23T00:07:27.603Z,12.70
2023-04-23T00:07:40.083Z,12.70
2023-04-23T00:07:51.861Z,12.70
2023-04-23T00:08:03.993Z,12.70
2023-04-23T00:08:15.870Z,12.80
2023-04-23T00:08:27.699Z,12.70
2023-04-23T00:08:40.835Z,12.70
2023-04-23T00:08:53.827Z,12.70
2023-04-23T00:09:06.845Z,12.70
2023-04-23T00:09:18.647Z,12.70
2023-04-23T00:09:31.564Z,12.80
2023-04-23T00:09:43.719Z,12.80
2023-04-23T00:09:55.549Z,12.80
2023-04-23T00:10:09.095Z,12.80
2023-04-23T00:10:21.004Z,12.80
2023-04-23T00:10:32.942Z,12.80
2023-04-23T00:10:44.890Z,12.80
2023-04-23T00:10:57.120Z,12.80
2023-04-23T00:11:09.949Z,12.80
2023-04-23T00:11:21.957Z,12.80
2023-04-23T00:11:33.972Z,12.80
2023-04-23T00:11:45.980Z,12.80
2023-04-23T00:11:58.236Z,12.80
2023-04-23T00:12:10.542Z,12.80
2023-04-23T00:12:22.551Z,12.80
2023-04-23T00:12:34.605Z,12.90
2023-04-23T00:12:46.734Z,12.90
2023-04-23T00:12:59.371Z,12.80
2023-04-23T00:13:11.500Z,12.90
2023-04-23T00:13:23.568Z,12.90
2023-04-23T00:13:35.647Z,12.80
2023-04-23T00:13:49.655Z,12.90
2023-04-23T00:14:01.607Z,12.90
2023-04-23T00:14:13.689Z,12.90
2023-04-23T00:14:25.621Z,12.90
2023-04-23T00:14:37.532Z,12.90
2023-04-23T00:14:49.482Z,12.90
2023-04-23T00:15:01.367Z,12.90
2023-04-23T00:15:14.141Z,12.90
2023-04-23T00:15:26.348Z,12.90
2023-04-23T00:15:38.445Z,12.90
2023-04-23T00:15:50.505Z,12.90
2023-04-23T00:16:03.040Z,12.90
2023-04-23T00:16:15.212Z,12.90
2023-04-23T00:16:27.307Z,12.90
2023-04-23T00:16:39.391Z,12.90
2023-04-23T00:16:52.354Z,12.90
2023-04-23T00:17:04.176Z,12.90
2023-04-23T00:17:15.982Z,12.90
2023-04-23T00:17:27.809Z,12.90
2023-04-23T00:17:39.783Z,12.90
2023-04-23T00:17:51.816Z,12.90
2023-04-23T00:18:03.900Z,12.90
2023-04-23T00:18:17.248Z,12.90
2023-04-23T00:18:29.721Z,12.90
2023-04-23T00:18:41.560Z,12.90
2023-04-23T00:18:53.373Z,12.90
2023-04-23T00:19:05.655Z,13.00
2023-04-23T00:19:17.404Z,13.00
2023-04-23T00:19:29.134Z,13.00
2023-04-23T00:19:41.070Z,13.00
2023-04-23T00:19:53.214Z,13.00
2023-04-23T00:20:06.931Z,13.00
2023-04-23T00:20:18.771Z,12.90
2023-04-23T00:20:30.554Z,13.00
2023-04-23T00:20:42.494Z,12.90
2023-04-23T00:20:54.284Z,13.00
2023-04-23T00:21:06.250Z,13.00
2023-04-23T00:21:18.139Z,13.00
2023-04-23T00:21:29.883Z,13.00
2023-04-23T00:21:41.660Z,13.00
2023-04-23T00:21:53.455Z,13.00
2023-04-23T00:22:06.205Z,13.00
2023-04-23T00:22:18.087Z,13.00
2023-04-23T00:22:29.864Z,13.00
2023-04-23T00:22:41.772Z,13.00
2023-04-23T00:22:53.616Z,13.00
2023-04-23T00:23:05.469Z,13.00
2023-04-23T00:23:17.384Z,13.00
2023-04-23T00:23:29.392Z,13.00
2023-04-23T00:23:41.318Z,13.00
2023-04-23T00:23:53.105Z,13.00
2023-04-23T00:24:05.258Z,13.00
2023-04-23T00:24:16.995Z,13.00
2023-04-23T00:24:28.796Z,13.00
2023-04-23T00:24:40.865Z,13.00
2023-04-23T00:24:52.794Z,13.00
2023-04-23T00:25:04.949Z,13.00
2023-04-23T00:25:16.874Z,13.00
2023-04-23T00:25:28.785Z,13.00
2023-04-23T00:25:40.785Z,13.00
2023-04-23T00:25:52.625Z,13.00
2023-04-23T00:26:04.521Z,13.00
2023-04-23T00:26:18.573Z,13.00
2023-04-23T00:26:30.629Z,13.00
2023-04-23T00:26:42.377Z,13.00
2023-04-23T00:26:54.186Z,13.00
2023-04-23T00:27:06.449Z,13.00
2023-04-23T00:27:18.303Z,13.00
2023-04-23T00:27:30.130Z,13.00
2023-04-23T00:27:41.949Z,13.00
2023-04-23T00:27:53.744Z,13.00
2023-04-23T00:28:05.653Z,13.00
2023-04-23T00:28:17.882Z,13.00
2023-04-23T00:28:30.635Z,13.00
2023-04-23T00:28:42.445Z,13.00
2023-04-23T00:28:54.251Z,13.00
2023-04-23T00:29:06.276Z,12.90
2023-04-23T00:29:18.179Z,13.00
2023-04-23T00:29:30.049Z,12.90
2023-04-23T00:29:43.258Z,13.00
2023-04-23T00:29:54.994Z,13.00
2023-04-23T00:30:07.488Z,13.00
2023-04-23T00:30:19.361Z,13.00
2023-04-23T00:30:31.090Z,13.00
2023-04-23T00:30:42.932Z,13.00
2023-04-23T00:30:54.659Z,13.00
2023-04-23T00:31:07.742Z,13.00
2023-04-23T00:31:19.704Z,13.00
2023-04-23T00:31:31.555Z,13.00
2023-04-23T00:31:43.448Z,13.00
2023-04-23T00:31:55.589Z,13.00
2023-04-23T00:32:07.855Z,13.00
2023-04-23T00:32:19.721Z,13.00
2023-04-23T00:32:31.706Z,13.00
2023-04-23T00:32:44.760Z,13.00
2023-04-23T00:32:56.617Z,13.00
2023-04-23T00:33:08.392Z,13.00
2023-04-23T00:33:20.295Z,13.00
2023-04-23T00:33:32.259Z,13.00
2023-04-23T00:33:44.037Z,13.00
2023-04-23T00:33:56.202Z,13.00
2023-04-23T00:34:08.080Z,13.00
2023-04-23T00:34:19.827Z,13.00
2023-04-23T00:34:33.130Z,13.00
2023-04-23T00:34:48.708Z,13.00
2023-04-23T00:35:01.139Z,13.00
2023-04-23T00:35:12.966Z,13.00
2023-04-23T00:35:24.785Z,13.00
2023-04-23T00:35:36.505Z,13.00
2023-04-23T00:35:48.660Z,13.00
2023-04-23T00:36:00.582Z,13.00
2023-04-23T00:36:12.457Z,13.00
2023-04-23T00:36:24.339Z,13.00
2023-04-23T00:36:36.064Z,13.00
2023-04-23T00:36:47.880Z,13.00
2023-04-23T00:36:59.786Z,13.00
2023-04-23T00:37:11.530Z,13.00
2023-04-23T00:37:23.390Z,13.00
2023-04-23T00:37:35.668Z,13.00
2023-04-23T00:37:47.482Z,13.00
2023-04-23T00:37:59.411Z,13.00
2023-04-23T00:38:11.308Z,12.90
2023-04-23T00:38:23.094Z,12.90
2023-04-23T00:38:34.904Z,12.90
2023-04-23T00:38:46.654Z,12.90
2023-04-23T00:38:58.537Z,12.90
2023-04-23T00:39:11.667Z,12.80
2023-04-23T00:39:23.423Z,12.80
2023-04-23T00:39:37.694Z,12.80
2023-04-23T00:39:49.518Z,12.80
2023-04-23T00:40:02.290Z,12.80
2023-04-23T00:40:14.067Z,12.80
2023-04-23T00:40:26.145Z,12.80
2023-04-23T00:40:37.901Z,12.80
2023-04-23T00:40:50.061Z,12.80
2023-04-23T00:41:01.887Z,12.80
2023-04-23T00:41:13.768Z,12.80
2023-04-23T00:41:25.885Z,12.80
2023-04-23T00:41:37.620Z,12.80
2023-04-23T00:41:49.438Z,12.80
2023-04-23T00:42:07.111Z,12.80
2023-04-23T00:42:18.995Z,12.80
2023-04-23T00:42:30.742Z,12.80
2023-04-23T00:42:42.577Z,12.80
2023-04-23T00:42:54.401Z,12.80
2023-04-23T00:43:07.306Z,12.80
2023-04-23T00:43:19.428Z,12.80
2023-04-23T00:43:31.386Z,12.80
2023-04-23T00:43:43.913Z,12.80
2023-04-23T00:43:57.446Z,12.80
2023-04-23T00:44:09.276Z,12.80
2023-04-23T00:44:21.029Z,12.80
2023-04-23T00:44:32.951Z,12.80
2023-04-23T00:44:44.762Z,12.80
2023-04-23T00:44:57.158Z,12.80
2023-04-23T00:45:09.153Z,12.80
2023-04-23T00:45:21.183Z,12.80
2023-04-23T00:45:33.698Z,12.80
2023-04-23T00:45:45.595Z,12.80
2023-04-23T00:45:57.541Z,12.80
2023-04-23T00:46:09.307Z,12.80
2023-04-23T00:46:21.220Z,12.70
2023-04-23T00:46:33.108Z,12.70
2023-04-23T00:46:45.065Z,12.80
2023-04-23T00:46:56.946Z,12.80
2023-04-23T00:47:08.803Z,12.80
2023-04-23T00:47:20.710Z,12.80
2023-04-23T00:47:32.616Z,12.80
2023-04-23T00:47:44.980Z,12.80
2023-04-23T00:47:56.892Z,12.80
2023-04-23T00:48:08.761Z,12.80
2023-04-23T00:48:20.613Z,12.80
2023-04-23T00:48:33.297Z,12.80
2023-04-23T00:48:46.560Z,12.80
2023-04-23T00:48:58.410Z,12.80
2023-04-23T00:49:10.217Z,12.80
2023-04-23T00:49:22.048Z,12.80
2023-04-23T00:49:34.609Z,12.80
2023-04-23T00:49:46.593Z,12.80
2023-04-23T00:49:58.374Z,12.80
2023-04-23T00:50:10.254Z,12.80
2023-04-23T00:50:22.082Z,12.80
2023-04-23T00:50:33.867Z,12.80
2023-04-23T00:50:46.454Z,12.80
2023-04-23T00:51:00.547Z,12.80
2023-04-23T00:51:12.463Z,12.80
2023-04-23T00:51:24.728Z,12.80
2023-04-23T00:51:36.521Z,12.80
2023-04-23T00:51:48.350Z,12.80
2023-04-23T00:52:01.233Z,12.80
2023-04-23T00:52:13.014Z,12.80
2023-04-23T00:52:24.770Z,12.80
2023-04-23T00:52:36.721Z,12.80
2023-04-23T00:52:48.654Z,12.80
2023-04-23T00:53:00.515Z,12.80
2023-04-23T00:53:12.633Z,12.80
2023-04-23T00:53:24.350Z,12.80
2023-04-23T00:53:36.210Z,12.80
2023-04-23T00:53:48.007Z,12.80
2023-04-23T00:53:59.877Z,12.80
2023-04-23T00:54:11.790Z,12.80
2023-04-23T00:54:23.721Z,12.80
2023-04-23T00:54:35.665Z,12.90
2023-04-23T00:54:47.423Z,12.80
2023-04-23T00:54:59.192Z,12.90
2023-04-23T00:55:10.988Z,12.90
2023-04-23T00:55:22.773Z,12.90
2023-04-23T00:55:34.702Z,12.90
2023-04-23T00:55:46.657Z,12.90
2023-04-23T00:55:58.452Z,12.90
2023-04-23T00:56:10.188Z,12.90
2023-04-23T00:56:23.046Z,12.90
2023-04-23T00:56:35.272Z,12.90
2023-04-23T00:56:47.184Z,12.90
2023-04-23T00:56:59.458Z,12.90
2023-04-23T00:57:11.258Z,13.00
2023-04-23T00:57:23.293Z,13.00
2023-04-23T00:57:36.487Z,13.00
2023-04-23T00:57:48.511Z,13.00
2023-04-23T00:58:00.988Z,13.00
2023-04-23T00:58:12.794Z,13.00
2023-04-23T00:58:24.529Z,13.00
2023-04-23T00:58:36.285Z,13.00
2023-04-23T00:58:48.101Z,13.00
2023-04-23T00:59:00.096Z,13.00
2023-04-23T00:59:11.878Z,13.00
2023-04-23T00:59:25.642Z,13.00
2023-04-23T00:59:37.481Z,13.00
2023-04-23T00:59:49.417Z,13.00
2023-04-23T01:00:01.193Z,13.10
2023-04-23T01:00:14.151Z,13.10
2023-04-23T01:00:26.348Z,13.00
2023-04-23T01:00:40.076Z,13.10
2023-04-23T01:00:52.566Z,13.00
2023-04-23T01:01:04.688Z,13.00
2023-04-23T01:01:20.886Z,13.00
2023-04-23T01:01:33.387Z,13.00
2023-04-23T01:01:45.816Z,13.00
2023-04-23T01:01:58.542Z,13.00
2023-04-23T01:02:10.755Z,13.10
2023-04-23T01:02:22.768Z,13.10
2023-04-23T01:02:35.020Z,13.00
2023-04-23T01:02:47.625Z,13.00
2023-04-23T01:02:59.677Z,13.10
2023-04-23T01:03:13.204Z,13.00
2023-04-23T01:03:26.416Z,13.00
2023-04-23T01:03:38.467Z,13.10
2023-04-23T01:03:52.529Z,13.00
2023-04-23T01:04:05.003Z,13.10
2023-04-23T01:04:17.585Z,13.00
2023-04-23T01:04:29.907Z,13.00
2023-04-23T01:04:43.910Z,13.00
2023-04-23T01:04:55.940Z,13.10
2023-04-23T01:05:08.053Z,13.10
2023-04-23T01:05:19.811Z,13.10
2023-04-23T01:05:31.676Z,13.10
2023-04-23T01:05:43.489Z,13.10
2023-04-23T01:05:55.329Z,13.10
2023-04-23T01:06:07.164Z,13.10
2023-04-23T01:06:19.220Z,13.10
2023-04-23T01:06:31.784Z,13.10
2023-04-23T01:06:44.071Z,13.10
2023-04-23T01:06:56.254Z,13.20
2023-04-23T01:07:08.165Z,13.10
2023-04-23T01:07:19.936Z,13.20
2023-04-23T01:07:34.677Z,13.10
2023-04-23T01:07:46.853Z,13.20
2023-04-23T01:07:58.766Z,13.20
2023-04-23T01:08:12.140Z,13.20
2023-04-23T01:08:24.075Z,13.20
2023-04-23T01:08:36.515Z,13.20
2023-04-23T01:08:48.406Z,13.20
2023-04-23T01:09:00.317Z,13.20
2023-04-23T01:09:12.443Z,13.20
2023-04-23T01:09:24.274Z,13.30
2023-04-23T01:09:36.145Z,13.20
2023-04-23T01:09:50.022Z,13.20
2023-04-23T01:10:02.255Z,13.20
2023-04-23T01:10:14.050Z,13.20
2023-04-23T01:10:25.899Z,13.20
2023-04-23T01:10:37.710Z,13.20
2023-04-23T01:10:49.507Z,13.20
2023-04-23T01:11:01.445Z,13.20
2023-04-23T01:11:16.993Z,13.20
2023-04-23T01:11:28.803Z,13.20
2023-04-23T01:11:42.628Z,13.20
2023-04-23T01:11:54.649Z,13.20
2023-04-23T01:12:06.746Z,13.20
2023-04-23T01:12:18.972Z,13.20
2023-04-23T01:12:31.537Z,13.20
2023-04-23T01:12:43.523Z,13.20
2023-04-23T01:12:55.495Z,13.20
2023-04-23T01:13:07.261Z,13.20
2023-04-23T01:13:19.065Z,13.20
2023-04-23T01:13:31.177Z,13.20
2023-04-23T01:13:43.191Z,13.20
2023-04-23T01:13:55.643Z,13.20
2023-04-23T01:14:08.555Z,13.20
2023-04-23T01:14:20.440Z,13.20
2023-04-23T01:14:32.517Z,13.20
2023-04-23T01:14:44.298Z,13.20
2023-04-23T01:14:56.106Z,13.20
2023-04-23T01:15:08.841Z,13.20
2023-04-23T01:15:20.820Z,13.20
2023-04-23T01:15:32.639Z,13.20
2023-04-23T01:15:44.934Z,13.10
2023-04-23T01:15:57.047Z,13.20
2023-04-23T01:16:09.599Z,13.10
2023-04-23T01:16:22.190Z,13.10
2023-04-23T01:16:34.216Z,13.10
2023-04-23T01:16:47.110Z,13.10
2023-04-23T01:16:59.096Z,13.10
2023-04-23T01:17:12.296Z,13.10
2023-04-23T01:17:24.202Z,13.10
2023-04-23T01:17:36.054Z,13.10
2023-04-23T01:17:48.081Z,13.10
2023-04-23T01:18:00.254Z,13.10
2023-04-23T01:18:12.901Z,13.10
2023-04-23T01:18:24.825Z,13.10
2023-04-23T01:18:36.720Z,13.10
2023-04-23T01:18:48.496Z,13.10
2023-04-23T01:19:00.647Z,13.10
2023-04-23T01:19:12.955Z,13.10
2023-04-23T01:19:24.937Z,13.10
2023-04-23T01:19:36.783Z,13.10
2023-04-23T01:19:48.720Z,13.10
2023-04-23T01:20:00.593Z,13.10
2023-04-23T01:20:12.705Z,13.00
2023-04-23T01:20:24.546Z,13.00
2023-04-23T01:20:36.588Z,13.00
2023-04-23T01:20:48.401Z,13.10
2023-04-23T01:21:00.294Z,13.00
2023-04-23T01:21:12.147Z,13.10
2023-04-23T01:21:24.135Z,13.00
2023-04-23T01:21:36.835Z,13.00
2023-04-23T01:21:48.617Z,13.00
2023-04-23T01:22:01.273Z,13.00
2023-04-23T01:22:16.545Z,13.00
2023-04-23T01:22:28.335Z,13.00
2023-04-23T01:22:40.127Z,13.00
2023-04-23T01:22:51.980Z,13.00
2023-04-23T01:23:04.311Z,13.00
2023-04-23T01:23:16.541Z,13.00
2023-04-23T01:23:28.328Z,13.00
2023-04-23T01:23:40.142Z,13.00
2023-04-23T01:23:52.042Z,13.00
2023-04-23T01:24:04.865Z,13.00
2023-04-23T01:24:16.664Z,12.90
2023-04-23T01:24:30.134Z,13.00
2023-04-23T01:24:42.898Z,13.00
2023-04-23T01:24:55.046Z,12.90
2023-04-23T01:25:08.407Z,12.90
2023-04-23T01:25:20.206Z,13.00
2023-04-23T01:25:32.156Z,13.00
2023-04-23T01:25:43.943Z,13.00
2023-04-23T01:25:55.751Z,13.00
2023-04-23T01:26:07.552Z,13.00
2023-04-23T01:26:19.704Z,13.00
2023-04-23T01:26:32.117Z,13.00
2023-04-23T01:26:44.907Z,13.00
2023-04-23T01:26:58.632Z,13.00
2023-04-23T01:27:11.176Z,13.00
2023-04-23T01:27:25.138Z,12.90
2023-04-23T01:27:36.979Z,13.00
2023-04-23T01:27:48.727Z,13.00
2023-04-23T01:28:00.681Z,12.90
2023-04-23T01:28:12.480Z,13.00
2023-04-23T01:28:24.294Z,12.90
2023-04-23T01:28:36.309Z,12.90
2023-04-23T01:28:48.143Z,12.90
2023-04-23T01:29:00.151Z,12.90
2023-04-23T01:29:11.896Z,12.90
2023-04-23T01:29:23.687Z,12.90
2023-04-23T01:29:35.829Z,12.90
2023-04-23T01:29:47.778Z,12.90
2023-04-23T01:29:59.714Z,13.00
2023-04-23T01:30:11.951Z,13.00
2023-04-23T01:30:27.668Z,13.00
2023-04-23T01:30:44.594Z,13.00
2023-04-23T01:30:56.536Z,13.00
2023-04-23T01:31:08.558Z,13.00
2023-04-23T01:31:20.317Z,13.00
2023-04-23T01:31:32.205Z,13.00
2023-04-23T01:31:44.008Z,13.00
2023-04-23T01:31:55.834Z,13.00
2023-04-23T01:32:07.750Z,13.00
2023-04-23T01:32:19.509Z,13.00
2023-04-23T01:32:32.144Z,13.00
2023-04-23T01:32:44.067Z,13.00
2023-04-23T01:32:56.331Z,13.00
2023-04-23T01:33:08.596Z,13.00
2023-04-23T01:33:20.409Z,13.00
2023-04-23T01:33:32.213Z,13.00
2023-04-23T01:33:44.399Z,13.00
2023-04-23T01:33:56.224Z,13.00
2023-04-23T01:34:08.208Z,13.00
2023-04-23T01:34:20.188Z,13.00
2023-04-23T01:34:32.038Z,13.00
2023-04-23T01:34:44.276Z,13.00
2023-04-23T01:34:56.489Z,13.00
2023-04-23T01:35:08.625Z,13.00
2023-04-23T01:35:20.656Z,13.00
2023-04-23T01:35:32.664Z,12.90
2023-04-23T01:35:44.400Z,13.00
2023-04-23T01:35:56.176Z,12.90
2023-04-23T01:36:08.500Z,12.90
2023-04-23T01:36:20.239Z,12.90
2023-04-23T01:36:32.100Z,12.90
2023-04-23T01:36:43.999Z,12.90
2023-04-23T01:36:55.851Z,12.90
2023-04-23T01:37:07.666Z,12.90
2023-04-23T01:37:19.449Z,12.90
2023-04-23T01:37:31.583Z,12.90
2023-04-23T01:37:43.449Z,12.90
2023-04-23T01:37:55.490Z,12.90
2023-04-23T01:38:09.220Z,12.90
2023-04-23T01:38:20.968Z,12.90
2023-04-23T01:38:32.796Z,12.90
2023-04-23T01:38:44.560Z,12.90
2023-04-23T01:38:56.508Z,12.90
2023-04-23T01:39:09.081Z,12.90
2023-04-23T01:39:20.956Z,12.90
2023-04-23T01:39:32.921Z,12.90
2023-04-23T01:39:44.932Z,12.90
2023-04-23T01:39:56.810Z,12.90
2023-04-23T01:40:08.953Z,12.90
2023-04-23T01:40:21.200Z,12.90
2023-04-23T01:40:33.029Z,12.90
2023-04-23T01:40:44.972Z,12.90
2023-04-23T01:40:56.804Z,12.90
2023-04-23T01:41:08.594Z,12.90
2023-04-23T01:41:20.457Z,12.90
2023-04-23T01:41:32.263Z,12.90
2023-04-23T01:41:44.151Z,12.90
2023-04-23T01:41:57.072Z,12.90
2023-04-23T01:42:08.868Z,12.90
2023-04-23T01:42:20.668Z,12.90
2023-04-23T01:42:32.492Z,13.00
2023-04-23T01:42:44.306Z,13.00
2023-04-23T01:42:57.010Z,13.00
2023-04-23T01:43:08.890Z,13.00
2023-04-23T01:43:20.632Z,13.00
2023-04-23T01:43:32.477Z,13.00
2023-04-23T01:43:44.485Z,13.00
2023-04-23T01:43:57.249Z,13.00
2023-04-23T01:44:09.058Z,13.00
2023-04-23T01:44:20.911Z,13.00
2023-04-23T01:44:32.832Z,13.00
2023-04-23T01:44:44.743Z,13.00
2023-04-23T01:44:56.621Z,13.00
2023-04-23T01:45:09.186Z,13.00
2023-04-23T01:45:21.338Z,13.00
2023-04-23T01:45:33.297Z,13.00
2023-04-23T01:45:45.028Z,13.00
2023-04-23T01:45:57.472Z,13.00
2023-04-23T01:46:09.538Z,13.00
2023-04-23T01:46:21.823Z,13.00
2023-04-23T01:46:33.736Z,13.00
2023-04-23T01:46:45.787Z,13.00
2023-04-23T01:46:57.639Z,13.00
2023-04-23T01:47:09.448Z,13.00
2023-04-23T01:47:21.432Z,13.00
2023-04-23T01:47:33.499Z,13.00
2023-04-23T01:47:45.490Z,13.00
2023-04-23T01:47:57.532Z,13.00
2023-04-23T01:48:09.677Z,13.00
2023-04-23T01:48:21.757Z,13.00
2023-04-23T01:48:33.552Z,13.00
2023-04-23T01:48:45.425Z,13.00
2023-04-23T01:48:57.183Z,13.00
2023-04-23T01:49:09.010Z,13.00
2023-04-23T01:49:20.854Z,13.00
2023-04-23T01:49:32.725Z,13.00
2023-04-23T01:49:44.567Z,13.00
2023-04-23T01:49:56.342Z,13.00
2023-04-23T01:50:08.980Z,13.00
2023-04-23T01:50:23.344Z,13.10
2023-04-23T01:50:35.158Z,13.00
2023-04-23T01:50:46.929Z,13.00
2023-04-23T01:50:58.689Z,13.00
2023-04-23T01:51:10.483Z,13.00
2023-04-23T01:51:23.802Z,13.00
2023-04-23T01:51:35.740Z,13.00
2023-04-23T01:51:47.642Z,12.90
2023-04-23T01:51:59.407Z,12.90
2023-04-23T01:52:11.424Z,12.90
2023-04-23T01:52:23.222Z,12.90
2023-04-23T01:52:34.970Z,12.90
2023-04-23T01:52:46.794Z,12.90
2023-04-23T01:52:58.667Z,12.90
2023-04-23T01:53:10.692Z,12.90
2023-04-23T01:53:22.488Z,12.90
2023-04-23T01:53:34.264Z,12.90
2023-04-23T01:53:46.037Z,12.90
2023-04-23T01:53:57.877Z,12.90
2023-04-23T01:54:09.806Z,12.90
2023-04-23T01:54:21.598Z,12.90
2023-04-23T01:54:33.421Z,12.90
2023-04-23T01:54:45.427Z,12.90
2023-04-23T01:54:57.236Z,12.90
2023-04-23T01:55:09.652Z,12.90
2023-04-23T01:55:21.680Z,12.90
2023-04-23T01:55:34.578Z,12.90
2023-04-23T01:55:47.252Z,12.90
2023-04-23T01:55:59.034Z,12.90
2023-04-23T01:56:11.021Z,12.90
2023-04-23T01:56:27.395Z,12.90
2023-04-23T01:56:39.268Z,12.90
2023-04-23T01:56:54.874Z,12.90
2023-04-23T01:57:06.665Z,12.90
2023-04-23T01:57:24.252Z,13.00
2023-04-23T01:57:36.539Z,12.90
2023-04-23T01:57:48.418Z,13.00
2023-04-23T01:58:00.305Z,12.90
2023-04-23T01:58:12.080Z,13.00
2023-04-23T01:58:24.070Z,12.90
2023-04-23T01:58:36.376Z,13.00
2023-04-23T01:58:48.168Z,12.90
2023-04-23T01:58:59.957Z,12.90
2023-04-23T01:59:11.764Z,12.90
2023-04-23T01:59:23.687Z,12.90
2023-04-23T01:59:35.612Z,13.00
2023-04-23T01:59:47.377Z,12.90
2023-04-23T02:00:11.586Z,13.00
2023-04-23T02:00:23.398Z,13.00
2023-04-23T02:00:35.151Z,13.00
2023-04-23T02:00:47.345Z,13.00
2023-04-23T02:00:59.273Z,13.00
2023-04-23T02:01:11.653Z,12.90
2023-04-23T02:01:23.606Z,13.00
2023-04-23T02:01:43.372Z,13.00
2023-04-23T02:01:55.292Z,13.00
2023-04-23T02:02:10.983Z,13.00
2023-04-23T02:02:22.958Z,13.00
2023-04-23T02:02:38.410Z,13.00
2023-04-23T02:02:52.787Z,12.90
2023-04-23T02:03:05.191Z,13.00
2023-04-23T02:03:17.169Z,12.90
2023-04-23T02:03:30.561Z,12.90
2023-04-23T02:03:42.671Z,13.00
2023-04-23T02:03:54.815Z,12.90
2023-04-23T02:04:06.721Z,13.00
2023-04-23T02:04:18.978Z,13.00
2023-04-23T02:04:31.702Z,12.90
2023-04-23T02:04:45.042Z,13.00
2023-04-23T02:04:57.205Z,13.00
2023-04-23T02:05:13.918Z,13.00
2023-04-23T02:05:25.736Z,12.90
2023-04-23T02:05:37.533Z,13.00
2023-04-23T02:05:49.319Z,12.90
2023-04-23T02:06:01.217Z,12.90
2023-04-23T02:06:13.179Z,13.00
2023-04-23T02:06:24.978Z,13.00
2023-04-23T02:06:36.771Z,12.90
2023-04-23T02:06:50.217Z,13.00
2023-04-23T02:07:01.974Z,13.00
2023-04-23T02:07:13.847Z,13.00
2023-04-23T02:07:25.790Z,13.00
2023-04-23T02:07:37.621Z,13.00
2023-04-23T02:07:50.188Z,13.00
2023-04-23T02:08:02.146Z,13.00
2023-04-23T02:08:14.030Z,13.00
2023-04-23T02:08:26.316Z,13.00
2023-04-23T02:08:38.486Z,13.00
2023-04-23T02:08:51.778Z,13.00
2023-04-23T02:09:04.757Z,13.00
2023-04-23T02:09:16.859Z,13.00
2023-04-23T02:09:28.675Z,13.00
2023-04-23T02:09:40.902Z,13.00
2023-04-23T02:09:52.753Z,13.00
2023-04-23T02:10:05.132Z,13.00
2023-04-23T02:10:16.984Z,13.00
2023-04-23T02:10:30.589Z,13.00
2023-04-23T02:10:42.335Z,13.00
2023-04-23T02:10:54.156Z,13.00
2023-04-23T02:11:06.693Z,13.00
2023-04-23T02:11:18.526Z,13.00
2023-04-23T02:11:30.271Z,13.00
2023-04-23T02:11:42.106Z,13.00
2023-04-23T02:11:53.905Z,13.00
2023-04-23T02:12:05.704Z,13.00
2023-04-23T02:12:17.614Z,13.00
2023-04-23T02:12:29.429Z,13.00
2023-04-23T02:12:41.428Z,13.10
2023-04-23T02:12:53.172Z,13.10
2023-04-23T02:13:05.043Z,13.10
2023-04-23T02:13:16.962Z,13.10
2023-04-23T02:13:28.699Z,13.10
2023-04-23T02:13:40.818Z,13.10
2023-04-23T02:13:52.778Z,13.10
2023-04-23T02:14:04.767Z,13.10
2023-04-23T02:14:17.673Z,13.10
2023-04-23T02:14:29.790Z,13.10
2023-04-23T02:14:41.980Z,13.00
2023-04-23T02:14:54.067Z,13.00
2023-04-23T02:15:06.737Z,13.10
2023-04-23T02:15:20.106Z,13.00
2023-04-23T02:15:32.653Z,13.10
2023-04-23T02:15:44.592Z,13.10
2023-04-23T02:15:56.613Z,13.00
2023-04-23T02:16:08.555Z,13.10
2023-04-23T02:16:20.537Z,13.10
2023-04-23T02:16:32.901Z,13.00
2023-04-23T02:16:45.681Z,13.00
2023-04-23T02:16:57.844Z,13.00
2023-04-23T02:17:09.579Z,13.10
2023-04-23T02:17:24.430Z,13.10
2023-04-23T02:17:36.404Z,13.00
2023-04-23T02:17:51.273Z,13.10
2023-04-23T02:18:03.154Z,13.00
2023-04-23T02:18:14.982Z,13.00
2023-04-23T02:18:26.822Z,13.00
2023-04-23T02:18:38.584Z,13.00
2023-04-23T02:18:50.876Z,13.00
2023-04-23T02:19:02.677Z,13.00
2023-04-23T02:19:16.969Z,13.00
2023-04-23T02:19:31.103Z,13.00
2023-04-23T02:19:43.171Z,13.00
2023-04-23T02:19:55.877Z,13.00
2023-04-23T02:20:09.791Z,13.00
2023-04-23T02:20:25.325Z,13.00
2023-04-23T02:20:40.721Z,13.00
2023-04-23T02:20:53.927Z,13.00
2023-04-23T02:21:06.545Z,13.10
2023-04-23T02:21:18.385Z,13.00
2023-04-23T02:21:30.178Z,13.00
2023-04-23T02:21:41.987Z,13.00
2023-04-23T02:21:54.091Z,13.10
2023-04-23T02:22:05.954Z,13.10
2023-04-23T02:22:17.980Z,13.10
2023-04-23T02:22:29.854Z,13.10
2023-04-23T02:22:43.731Z,13.10
2023-04-23T02:22:56.276Z,13.10
2023-04-23T02:23:08.795Z,13.10
2023-04-23T02:23:20.633Z,13.10
2023-04-23T02:23:32.507Z,13.10
2023-04-23T02:23:44.485Z,13.10
2023-04-23T02:23:56.297Z,13.10
2023-04-23T02:24:08.100Z,13.10
2023-04-23T02:24:19.848Z,13.10
2023-04-23T02:24:31.634Z,13.10
2023-04-23T02:24:44.520Z,13.10
2023-04-23T02:24:56.325Z,13.10
2023-04-23T02:25:08.356Z,13.10
2023-04-23T02:25:21.941Z,13.10
2023-04-23T02:25:33.988Z,13.10
2023-04-23T02:25:46.120Z,13.10
2023-04-23T02:25:57.918Z,13.10
2023-04-23T02:26:09.798Z,13.10
2023-04-23T02:26:22.957Z,13.10
2023-04-23T02:26:34.751Z,13.20
2023-04-23T02:26:47.540Z,13.20
2023-04-23T02:26:59.393Z,13.20
2023-04-23T02:27:11.163Z,13.20
2023-04-23T02:27:23.019Z,13.20
2023-04-23T02:27:35.331Z,13.10
2023-04-23T02:27:47.419Z,13.10
2023-04-23T02:28:01.457Z,13.10
2023-04-23T02:28:13.599Z,13.10
2023-04-23T02:28:25.555Z,13.10
2023-04-23T02:28:37.511Z,13.10
2023-04-23T02:28:49.358Z,13.10
2023-04-23T02:29:01.232Z,13.10
2023-04-23T02:29:13.002Z,13.10
2023-04-23T02:29:24.900Z,13.10
2023-04-23T02:29:36.901Z,13.10
2023-04-23T02:29:48.969Z,13.20
2023-04-23T02:30:00.912Z,13.10
2023-04-23T02:30:12.978Z,13.10
2023-04-23T02:30:25.697Z,13.20
2023-04-23T02:30:37.907Z,13.20
2023-04-23T02:30:49.820Z,13.20
2023-04-23T02:31:01.622Z,13.10
2023-04-23T02:31:13.482Z,13.20
2023-04-23T02:31:25.329Z,13.20
2023-04-23T02:31:37.175Z,13.20
2023-04-23T02:31:49.043Z,13.20
2023-04-23T02:32:00.985Z,13.20
2023-04-23T02:32:12.858Z,13.20
2023-04-23T02:32:24.922Z,13.10
2023-04-23T02:32:38.064Z,13.20
2023-04-23T02:32:50.169Z,13.10
2023-04-23T02:33:02.098Z,13.10
2023-04-23T02:33:14.331Z,13.10
2023-04-23T02:33:26.615Z,13.10
2023-04-23T02:33:38.625Z,13.10
2023-04-23T02:33:50.504Z,13.10
2023-04-23T02:34:02.299Z,13.10
2023-04-23T02:34:14.216Z,13.10
2023-04-23T02:34:25.945Z,13.10
2023-04-23T02:34:37.912Z,13.10
2023-04-23T02:34:49.755Z,13.10
2023-04-23T02:35:02.177Z,13.10
2023-04-23T02:35:14.009Z,13.10
2023-04-23T02:35:25.950Z,13.10
2023-04-23T02:35:37.673Z,13.10
2023-04-23T02:35:49.483Z,13.10
2023-04-23T02:36:01.798Z,13.10
2023-04-23T02:36:13.575Z,13.10
2023-04-23T02:36:25.622Z,13.10
2023-04-23T02:36:38.382Z,13.10
2023-04-23T02:36:50.498Z,13.10
2023-04-23T02:37:02.423Z,13.10
2023-04-23T02:37:14.650Z,13.10
2023-04-23T02:37:27.179Z,13.10
2023-04-23T02:37:39.734Z,13.10
2023-04-23T02:37:51.652Z,13.10
2023-04-23T02:38:03.467Z,13.00